createdAt,value
2022-10-02T00:00:28.562Z,46.66
2022-10-02T00:02:54.484Z,46.71
2022-10-02T00:05:03.076Z,46.61
2022-10-02T00:07:06.560Z,46.44
2022-10-02T00:09:08.371Z,46.50
2022-10-02T00:11:16.826Z,46.23
2022-10-02T00:13:23.078Z,46.23
2022-10-02T00:15:27.536Z,46.28
2022-10-02T00:17:39.402Z,46.20
2022-10-02T00:19:41.024Z,46.20
2022-10-02T00:22:07.004Z,46.03
2022-10-02T00:24:11.807Z,45.96
2022-10-02T00:26:22.597Z,45.94
2022-10-02T00:28:26.920Z,46.04
2022-10-02T00:30:28.394Z,45.67
2022-10-02T00:32:48.055Z,45.67
2022-10-02T00:35:20.756Z,45.61
2022-10-02T00:37:43.257Z,45.68
2022-10-02T00:39:56.980Z,45.53
2022-10-02T00:42:22.718Z,45.56
2022-10-02T00:44:33.434Z,45.37
2022-10-02T00:46:48.707Z,45.06
2022-10-02T00:49:13.590Z,44.98
2022-10-02T00:51:31.185Z,45.17
2022-10-02T00:53:43.055Z,45.02
2022-10-02T00:55:56.229Z,45.19
2022-10-02T00:58:12.677Z,44.91
2022-10-02T01:00:20.285Z,44.92
2022-10-02T01:02:31.072Z,44.83
2022-10-02T01:04:39.084Z,45.06
2022-10-02T01:06:40.733Z,44.79
2022-10-02T01:08:42.380Z,44.55
2022-10-02T01:10:44.065Z,44.64
2022-10-02T01:12:45.808Z,44.41
2022-10-02T01:14:47.448Z,44.34
2022-10-02T01:16:49.190Z,44.26
2022-10-02T01:18:50.831Z,44.63
2022-10-02T01:20:54.590Z,44.46
2022-10-02T01:23:15.497Z,44.34
2022-10-02T01:25:17.148Z,44.20
2022-10-02T01:27:18.951Z,44.11
2022-10-02T01:29:20.610Z,44.02
2022-10-02T01:31:22.285Z,44.17
2022-10-02T01:33:24.114Z,44.00
2022-10-02T01:35:27.969Z,44.17
2022-10-02T01:37:30.334Z,44.08
2022-10-02T01:39:31.989Z,43.92
2022-10-02T01:41:35.249Z,43.56
2022-10-02T01:43:42.517Z,43.74
2022-10-02T01:46:04.208Z,43.44
2022-10-02T01:48:21.869Z,43.71
2022-10-02T01:50:33.451Z,43.67
2022-10-02T01:53:29.709Z,43.67
2022-10-02T01:55:40.104Z,43.09
2022-10-02T01:58:02.508Z,43.41
2022-10-02T02:00:11.220Z,43.09
2022-10-02T02:02:41.857Z,43.15
2022-10-02T02:05:03.055Z,43.29
2022-10-02T02:07:13.091Z,43.15
2022-10-02T02:09:52.270Z,42.62
2022-10-02T02:11:57.599Z,43.05
2022-10-02T02:14:25.004Z,42.71
2022-10-02T02:16:30.957Z,42.85
2022-10-02T02:18:41.293Z,42.57
2022-10-02T02:20:48.345Z,42.82
2022-10-02T02:22:50.595Z,43.12
2022-10-02T02:25:12.629Z,43.09
2022-10-02T02:27:15.982Z,42.57
2022-10-02T02:29:18.063Z,42.77
2022-10-02T02:31:21.707Z,42.60
2022-10-02T02:33:30.861Z,42.67
2022-10-02T02:35:37.928Z,42.62
2022-10-02T02:37:40.118Z,42.36
2022-10-02T02:40:05.241Z,42.31
2022-10-02T02:42:08.406Z,42.64
2022-10-02T02:44:23.015Z,42.36
2022-10-02T02:46:36.825Z,42.16
2022-10-02T02:48:51.426Z,42.18
2022-10-02T02:50:56.166Z,42.57
2022-10-02T02:53:04.905Z,42.43
2022-10-02T02:55:34.658Z,42.42
2022-10-02T02:57:48.567Z,42.30
2022-10-02T02:59:50.156Z,42.20
2022-10-02T03:01:51.835Z,42.49
2022-10-02T03:03:53.544Z,41.93
2022-10-02T03:06:25.159Z,42.32
2022-10-02T03:08:28.074Z,42.07
2022-10-02T03:11:03.896Z,42.26
2022-10-02T03:13:23.571Z,42.03
2022-10-02T03:16:03.823Z,42.21
2022-10-02T03:18:25.851Z,42.03
2022-10-02T03:20:58.771Z,42.13
2022-10-02T03:23:03.157Z,42.04
2022-10-02T03:25:23.796Z,41.72
2022-10-02T03:27:35.645Z,41.96
2022-10-02T03:30:01.838Z,41.80
2022-10-02T03:32:03.700Z,41.71
2022-10-02T03:34:05.304Z,41.19
2022-10-02T03:36:06.975Z,41.52
2022-10-02T03:38:11.449Z,41.08
2022-10-02T03:40:13.093Z,41.18
2022-10-02T03:42:14.970Z,41.34
2022-10-02T03:44:16.575Z,41.19
2022-10-02T03:46:18.264Z,41.23
2022-10-02T03:48:20.002Z,41.04
2022-10-02T03:50:21.787Z,40.88
2022-10-02T03:52:23.563Z,41.12
2022-10-02T03:54:34.733Z,40.67
2022-10-02T03:56:39.136Z,40.34
2022-10-02T03:58:43.463Z,40.52
2022-10-02T04:01:08.331Z,40.40
2022-10-02T04:03:15.758Z,40.24
2022-10-02T04:05:36.734Z,40.39
2022-10-02T04:07:39.987Z,40.00
2022-10-02T04:10:19.711Z,39.88
2022-10-02T04:12:27.219Z,39.94
2022-10-02T04:14:34.622Z,40.06
2022-10-02T04:16:57.053Z,39.51
2022-10-02T04:18:59.302Z,39.51
2022-10-02T04:21:11.434Z,39.76
2022-10-02T04:23:22.077Z,39.79
2022-10-02T04:25:29.257Z,39.43
2022-10-02T04:27:42.661Z,39.50
2022-10-02T04:30:05.363Z,39.56
2022-10-02T04:32:13.016Z,39.34
2022-10-02T04:34:14.723Z,39.54
2022-10-02T04:36:23.568Z,39.37
2022-10-02T04:38:49.443Z,39.09
2022-10-02T04:41:03.131Z,39.41
2022-10-02T04:43:11.762Z,39.26
2022-10-02T04:45:26.337Z,39.03
2022-10-02T04:47:36.993Z,38.99
2022-10-02T04:49:59.547Z,39.36
2022-10-02T04:52:22.598Z,38.95
2022-10-02T04:54:42.047Z,39.11
2022-10-02T04:57:05.583Z,39.21
2022-10-02T04:59:17.269Z,38.92
2022-10-02T05:01:39.477Z,39.17
2022-10-02T05:04:05.433Z,39.00
2022-10-02T05:06:42.113Z,38.75
2022-10-02T05:09:02.144Z,38.66
2022-10-02T05:11:32.262Z,38.83
2022-10-02T05:13:59.112Z,38.92
2022-10-02T05:16:16.757Z,38.49
2022-10-02T05:18:40.097Z,38.81
2022-10-02T05:21:18.509Z,38.53
2022-10-02T05:23:23.109Z,38.55
2022-10-02T05:25:43.247Z,38.67
2022-10-02T05:28:02.982Z,38.63
2022-10-02T05:30:20.123Z,38.60
2022-10-02T05:32:58.521Z,38.35
2022-10-02T05:35:18.141Z,38.08
2022-10-02T05:37:50.511Z,38.57
2022-10-02T05:40:16.651Z,38.19
2022-10-02T05:42:42.860Z,38.37
2022-10-02T05:44:47.833Z,38.46
2022-10-02T05:47:03.467Z,38.40
2022-10-02T05:49:28.155Z,38.44
2022-10-02T05:51:37.088Z,38.02
2022-10-02T05:53:48.154Z,38.05
2022-10-02T05:55:52.317Z,38.28
2022-10-02T05:58:15.225Z,37.94
2022-10-02T06:00:22.922Z,37.83
2022-10-02T06:02:45.948Z,37.95
2022-10-02T06:04:53.692Z,38.11
2022-10-02T06:06:56.382Z,37.84
2022-10-02T06:09:00.584Z,38.08
2022-10-02T06:11:11.893Z,38.08
2022-10-02T06:13:27.646Z,37.75
2022-10-02T06:16:00.135Z,38.10
2022-10-02T06:18:07.346Z,38.07
2022-10-02T06:20:22.628Z,38.10
2022-10-02T06:22:29.045Z,37.62
2022-10-02T06:24:47.499Z,37.95
2022-10-02T06:26:58.220Z,37.74
2022-10-02T06:29:01.741Z,37.77
2022-10-02T06:31:54.837Z,37.64
2022-10-02T06:33:57.055Z,37.94
2022-10-02T06:36:17.052Z,37.68
2022-10-02T06:38:24.667Z,37.84
2022-10-02T06:40:55.956Z,37.72
2022-10-02T06:43:32.441Z,37.90
2022-10-02T06:45:55.393Z,37.63
2022-10-02T06:48:09.806Z,37.84
2022-10-02T06:50:27.094Z,37.92
2022-10-02T06:52:38.335Z,37.44
2022-10-02T06:55:15.739Z,37.49
2022-10-02T06:57:39.648Z,37.67
2022-10-02T06:59:45.663Z,37.34
2022-10-02T07:01:57.264Z,37.51
2022-10-02T07:04:31.446Z,37.59
2022-10-02T07:06:42.676Z,37.31
2022-10-02T07:09:16.539Z,37.55
2022-10-02T07:11:36.547Z,37.28
2022-10-02T07:13:48.550Z,37.15
2022-10-02T07:15:59.141Z,37.23
2022-10-02T07:18:03.878Z,37.29
2022-10-02T07:20:23.720Z,37.33
2022-10-02T07:22:46.383Z,37.76
2022-10-02T07:25:01.178Z,37.57
2022-10-02T07:27:14.599Z,37.43
2022-10-02T07:29:36.296Z,37.30
2022-10-02T07:31:55.569Z,37.19
2022-10-02T07:34:35.375Z,37.51
2022-10-02T07:36:41.317Z,37.26
2022-10-02T07:39:01.018Z,37.43
2022-10-02T07:41:10.866Z,37.25
2022-10-02T07:43:26.188Z,37.39
2022-10-02T07:46:03.409Z,37.50
2022-10-02T07:48:34.870Z,37.10
2022-10-02T07:50:55.263Z,37.38
2022-10-02T07:53:07.247Z,37.27
2022-10-02T07:55:25.526Z,37.29
2022-10-02T07:57:41.593Z,37.14
2022-10-02T07:59:43.974Z,37.56
2022-10-02T08:01:47.099Z,37.23
2022-10-02T08:03:52.618Z,37.13
2022-10-02T08:05:58.918Z,37.45
2022-10-02T08:08:23.509Z,37.44
2022-10-02T08:10:27.098Z,37.17
2022-10-02T08:12:55.142Z,37.55
2022-10-02T08:14:56.821Z,37.52
2022-10-02T08:17:01.144Z,37.33
2022-10-02T08:19:03.155Z,37.61
2022-10-02T08:21:10.622Z,37.27
2022-10-02T08:23:21.456Z,37.30
2022-10-02T08:25:28.186Z,37.32
2022-10-02T08:27:45.999Z,37.63
2022-10-02T08:29:48.998Z,37.44
2022-10-02T08:31:53.948Z,37.41
2022-10-02T08:33:56.268Z,37.52
2022-10-02T08:36:27.031Z,37.30
2022-10-02T08:38:53.858Z,37.38
2022-10-02T08:41:29.278Z,37.45
2022-10-02T08:44:12.350Z,37.35
2022-10-02T08:46:31.691Z,37.67
2022-10-02T08:48:54.973Z,37.66
2022-10-02T08:51:33.493Z,37.65
2022-10-02T08:54:07.617Z,37.68
2022-10-02T08:56:39.392Z,37.57
2022-10-02T08:58:47.202Z,37.37
2022-10-02T09:01:26.230Z,37.58
2022-10-02T09:04:08.655Z,37.54
2022-10-02T09:06:38.314Z,37.57
2022-10-02T09:09:11.109Z,37.56
2022-10-02T09:11:42.995Z,37.42
2022-10-02T09:13:47.568Z,37.65
2022-10-02T09:16:11.445Z,37.44
2022-10-02T09:18:25.961Z,37.56
2022-10-02T09:20:48.732Z,37.31
2022-10-02T09:23:11.452Z,37.28
2022-10-02T09:25:36.586Z,37.67
2022-10-02T09:28:07.432Z,37.31
2022-10-02T09:30:21.251Z,37.56
2022-10-02T09:32:31.594Z,37.54
2022-10-02T09:35:06.074Z,37.43
2022-10-02T09:37:35.529Z,37.30
2022-10-02T09:39:58.729Z,37.42
2022-10-02T09:42:18.653Z,37.66
2022-10-02T09:44:50.539Z,37.38
2022-10-02T09:47:00.980Z,37.19
2022-10-02T09:49:21.050Z,37.52
2022-10-02T09:51:48.504Z,37.44
2022-10-02T09:54:14.872Z,37.33
2022-10-02T09:56:31.543Z,37.53
2022-10-02T09:58:47.644Z,37.08
2022-10-02T10:01:21.078Z,37.09
2022-10-02T10:04:01.067Z,37.13
2022-10-02T10:06:35.038Z,37.16
2022-10-02T10:09:21.534Z,37.14
2022-10-02T10:11:55.301Z,37.17
2022-10-02T10:14:25.700Z,37.34
2022-10-02T10:16:57.475Z,37.29
2022-10-02T10:19:26.279Z,37.46
2022-10-02T10:21:58.362Z,37.21
2022-10-02T10:24:35.091Z,37.49
2022-10-02T10:26:51.834Z,36.99
2022-10-02T10:29:12.893Z,37.03
2022-10-02T10:31:32.832Z,37.25
2022-10-02T10:34:01.983Z,37.17
2022-10-02T10:36:06.721Z,37.07
2022-10-02T10:38:38.463Z,37.01
2022-10-02T10:41:13.415Z,36.94
2022-10-02T10:43:43.979Z,37.28
2022-10-02T10:45:54.280Z,37.17
2022-10-02T10:48:20.953Z,37.17
2022-10-02T10:50:45.801Z,37.03
2022-10-02T10:53:01.065Z,37.10
2022-10-02T10:55:32.847Z,37.19
2022-10-02T10:57:38.509Z,36.86
2022-10-02T11:00:17.614Z,37.25
2022-10-02T11:02:33.960Z,37.02
2022-10-02T11:05:08.874Z,37.03
2022-10-02T11:07:20.162Z,37.08
2022-10-02T11:09:52.967Z,37.10
2022-10-02T11:12:09.918Z,37.25
2022-10-02T11:14:35.948Z,36.96
2022-10-02T11:16:58.955Z,37.17
2022-10-02T11:19:22.283Z,36.91
2022-10-02T11:22:11.722Z,37.27
2022-10-02T11:24:25.227Z,36.89
2022-10-02T11:26:54.326Z,36.86
2022-10-02T11:29:31.831Z,36.99
2022-10-02T11:31:48.676Z,37.43
2022-10-02T11:34:09.348Z,37.12
2022-10-02T11:36:34.043Z,37.07
2022-10-02T11:41:05.234Z,37.37
2022-10-02T11:43:25.713Z,37.47
2022-10-02T11:45:50.699Z,37.06
2022-10-02T11:48:14.022Z,37.09
2022-10-02T11:50:51.789Z,37.31
2022-10-02T11:52:56.542Z,37.52
2022-10-02T11:55:42.871Z,37.36
2022-10-02T11:57:50.473Z,37.65
2022-10-02T11:59:55.044Z,37.40
2022-10-02T12:02:06.015Z,37.41
2022-10-02T12:04:26.487Z,37.23
2022-10-02T12:06:43.300Z,37.59
2022-10-02T12:08:59.433Z,37.75
2022-10-02T12:11:29.614Z,37.52
2022-10-02T12:13:39.981Z,37.79
2022-10-02T12:15:56.908Z,37.48
2022-10-02T12:18:04.153Z,37.62
2022-10-02T12:20:19.357Z,37.75
2022-10-02T12:22:26.440Z,37.63
2022-10-02T12:24:55.049Z,37.35
2022-10-02T12:26:58.784Z,37.32
2022-10-02T12:29:05.520Z,37.62
2022-10-02T12:31:19.520Z,37.65
2022-10-02T12:33:29.634Z,37.59
2022-10-02T12:35:31.303Z,37.42
2022-10-02T12:38:12.680Z,37.61
2022-10-02T12:40:36.407Z,37.73
2022-10-02T12:43:10.128Z,37.64
2022-10-02T12:45:37.618Z,37.46
2022-10-02T12:47:54.401Z,37.47
2022-10-02T12:50:23.517Z,37.86
2022-10-02T12:52:58.754Z,37.70
2022-10-02T12:55:32.834Z,37.35
2022-10-02T12:58:03.017Z,37.61
2022-10-02T13:00:08.412Z,37.84
2022-10-02T13:02:59.742Z,37.41
2022-10-02T13:05:28.965Z,37.73
2022-10-02T13:07:44.651Z,37.82
2022-10-02T13:09:55.396Z,37.84
2022-10-02T13:11:56.954Z,37.54
2022-10-02T13:14:07.350Z,37.89
2022-10-02T13:16:12.760Z,37.47
2022-10-02T13:18:33.541Z,37.82
2022-10-02T13:20:39.072Z,37.87
2022-10-02T13:23:22.973Z,37.67
2022-10-02T13:25:36.370Z,37.80
2022-10-02T13:27:51.636Z,37.53
2022-10-02T13:30:05.447Z,37.94
2022-10-02T13:32:12.348Z,37.47
2022-10-02T13:34:38.437Z,37.57
2022-10-02T13:37:10.393Z,37.58
2022-10-02T13:39:34.910Z,37.72
2022-10-02T13:41:51.638Z,37.60
2022-10-02T13:44:19.849Z,37.69
2022-10-02T13:46:31.751Z,37.96
2022-10-02T13:48:51.670Z,37.70
2022-10-02T13:50:57.972Z,37.58
2022-10-02T13:53:20.915Z,37.52
2022-10-02T13:55:23.700Z,37.52
2022-10-02T13:57:48.922Z,37.88
2022-10-02T13:59:57.387Z,37.76
2022-10-02T14:02:15.946Z,37.93
2022-10-02T14:04:46.128Z,37.42
2022-10-02T14:07:10.672Z,37.64
2022-10-02T14:09:16.009Z,37.60
2022-10-02T14:11:36.959Z,38.10
2022-10-02T14:14:12.202Z,37.97
2022-10-02T14:17:09.485Z,37.92
2022-10-02T14:19:24.596Z,37.99
2022-10-02T14:21:37.570Z,37.74
2022-10-02T14:23:56.232Z,37.62
2022-10-02T14:26:06.605Z,37.74
2022-10-02T14:28:26.098Z,37.95
2022-10-02T14:30:30.976Z,38.02
2022-10-02T14:32:38.368Z,37.73
2022-10-02T14:35:03.566Z,38.18
2022-10-02T14:37:23.651Z,37.86
2022-10-02T14:39:36.173Z,38.04
2022-10-02T14:41:53.744Z,37.74
2022-10-02T14:44:25.097Z,37.69
2022-10-02T14:47:04.433Z,38.11
2022-10-02T14:49:26.200Z,38.18
2022-10-02T14:51:49.273Z,38.08
2022-10-02T14:54:26.092Z,38.08
2022-10-02T14:56:53.196Z,38.13
2022-10-02T14:59:10.584Z,38.02
2022-10-02T15:01:21.048Z,37.94
2022-10-02T15:03:33.358Z,38.20
2022-10-02T15:05:38.763Z,38.00
2022-10-02T15:07:41.028Z,37.99
2022-10-02T15:09:51.817Z,38.08
2022-10-02T15:12:11.186Z,37.97
2022-10-02T15:14:26.386Z,38.34
2022-10-02T15:16:47.256Z,38.25
2022-10-02T15:18:55.873Z,37.78
2022-10-02T15:21:22.881Z,38.11
2022-10-02T15:23:40.475Z,38.24
2022-10-02T15:25:57.843Z,38.25
2022-10-02T15:28:31.177Z,37.78
2022-10-02T15:30:28.015Z,37.85
2022-10-02T15:32:52.541Z,37.93
2022-10-02T15:35:18.640Z,38.21
2022-10-02T15:37:47.980Z,38.13
2022-10-02T15:39:52.902Z,38.31
2022-10-02T15:42:03.580Z,38.04
2022-10-02T15:44:25.655Z,38.15
2022-10-02T15:47:06.147Z,38.04
2022-10-02T15:49:14.954Z,38.01
2022-10-02T15:51:17.057Z,38.34
2022-10-02T15:53:40.571Z,38.01
2022-10-02T15:55:50.169Z,38.07
2022-10-02T15:58:19.894Z,38.00
2022-10-02T16:00:22.653Z,37.93
2022-10-02T16:02:50.753Z,38.46
2022-10-02T16:05:10.779Z,38.17
2022-10-02T16:07:45.907Z,38.22
2022-10-02T16:10:09.296Z,38.21
2022-10-02T16:12:35.158Z,38.19
2022-10-02T16:15:07.574Z,38.12
2022-10-02T16:17:34.494Z,38.11
2022-10-02T16:19:54.864Z,38.04
2022-10-02T16:22:14.352Z,38.14
2022-10-02T16:24:56.354Z,38.08
2022-10-02T16:27:20.620Z,38.05
2022-10-02T16:29:31.630Z,38.37
2022-10-02T16:31:52.253Z,38.41
2022-10-02T16:33:57.450Z,38.14
2022-10-02T16:36:20.639Z,38.54
2022-10-02T16:38:25.738Z,38.49
2022-10-02T16:40:33.180Z,38.26
2022-10-02T16:42:39.056Z,38.16
2022-10-02T16:44:59.304Z,38.40
2022-10-02T16:47:22.789Z,38.33
2022-10-02T16:49:24.853Z,38.06
2022-10-02T16:51:33.043Z,38.22
2022-10-02T16:53:43.203Z,38.52
2022-10-02T16:55:51.595Z,38.32
2022-10-02T16:58:26.061Z,38.27
2022-10-02T17:00:49.197Z,38.53
2022-10-02T17:03:18.525Z,38.18
2022-10-02T17:05:39.208Z,38.19
2022-10-02T17:08:10.854Z,38.19
2022-10-02T17:10:21.561Z,38.14
2022-10-02T17:12:37.427Z,38.27
2022-10-02T17:14:50.697Z,38.02
2022-10-02T17:16:53.034Z,38.30
2022-10-02T17:18:59.311Z,38.30
2022-10-02T17:21:21.666Z,38.09
2022-10-02T17:23:58.495Z,38.45
2022-10-02T17:26:06.617Z,38.13
2022-10-02T17:28:47.587Z,38.12
2022-10-02T17:31:01.907Z,38.27
2022-10-02T17:33:12.081Z,38.33
2022-10-02T17:35:24.008Z,38.05
2022-10-02T17:37:51.606Z,38.10
2022-10-02T17:40:02.394Z,38.16
2022-10-02T17:42:22.604Z,38.26
2022-10-02T17:44:46.862Z,38.18
2022-10-02T17:46:54.993Z,38.32
2022-10-02T17:49:18.854Z,38.26
2022-10-02T17:51:54.661Z,38.66
2022-10-02T17:54:33.815Z,38.20
2022-10-02T17:57:00.408Z,38.04
2022-10-02T17:59:22.427Z,37.00
2022-10-02T18:01:34.480Z,37.83
2022-10-02T18:04:13.361Z,37.27
2022-10-02T18:06:24.651Z,37.69
2022-10-02T18:08:53.004Z,37.59
2022-10-02T18:11:10.121Z,37.81
2022-10-02T18:13:27.067Z,38.02
2022-10-02T18:15:50.592Z,38.31
2022-10-02T18:18:33.442Z,38.56
2022-10-02T18:20:38.958Z,38.51
2022-10-02T18:23:14.263Z,38.99
2022-10-02T18:25:44.119Z,39.14
2022-10-02T18:28:20.073Z,39.55
2022-10-02T18:30:23.241Z,39.46
2022-10-02T18:33:02.407Z,39.43
2022-10-02T18:35:04.186Z,39.24
2022-10-02T18:37:06.171Z,39.34
2022-10-02T18:39:26.720Z,39.31
2022-10-02T18:41:52.883Z,39.54
2022-10-02T18:44:20.185Z,39.74
2022-10-02T18:46:21.935Z,39.93
2022-10-02T18:48:41.465Z,39.80
2022-10-02T18:51:10.783Z,40.69
2022-10-02T18:53:21.727Z,40.55
2022-10-02T18:55:35.690Z,40.19
2022-10-02T18:57:58.720Z,40.25
2022-10-02T19:00:13.009Z,40.25
2022-10-02T19:02:22.048Z,40.21
2022-10-02T19:04:26.499Z,40.33
2022-10-02T19:06:46.615Z,40.76
2022-10-02T19:09:24.809Z,40.95
2022-10-02T19:11:27.708Z,40.41
2022-10-02T19:13:30.500Z,40.83
2022-10-02T19:15:32.834Z,40.86
2022-10-02T19:17:34.823Z,40.96
2022-10-02T19:19:37.035Z,40.52
2022-10-02T19:21:38.988Z,41.27
2022-10-02T19:23:52.841Z,40.90
2022-10-02T19:25:55.624Z,41.10
2022-10-02T19:27:57.362Z,41.12
2022-10-02T19:30:03.231Z,40.76
2022-10-02T19:32:19.139Z,40.87
2022-10-02T19:34:22.959Z,40.54
2022-10-02T19:36:25.983Z,40.88
2022-10-02T19:38:37.423Z,40.92
2022-10-02T19:40:39.244Z,40.23
2022-10-02T19:42:50.879Z,40.41
2022-10-02T19:45:01.283Z,40.43
2022-10-02T19:47:03.810Z,40.87
2022-10-02T19:49:09.173Z,40.32
2022-10-02T19:51:18.531Z,40.44
2022-10-02T19:53:27.147Z,40.28
2022-10-02T19:55:31.845Z,40.51
2022-10-02T19:57:36.604Z,40.59
2022-10-02T19:59:40.873Z,40.75
2022-10-02T20:01:43.028Z,40.87
2022-10-02T20:03:44.901Z,40.53
2022-10-02T20:05:48.050Z,40.73
2022-10-02T20:07:50.658Z,41.19
2022-10-02T20:09:55.309Z,40.95
2022-10-02T20:12:00.947Z,40.47
2022-10-02T20:14:20.488Z,41.12
2022-10-02T20:16:23.688Z,40.62
2022-10-02T20:18:25.559Z,40.66
2022-10-02T20:20:27.501Z,40.71
2022-10-02T20:22:48.640Z,41.18
2022-10-02T20:25:04.207Z,40.58
2022-10-02T20:27:43.238Z,41.12
2022-10-02T20:29:47.175Z,41.00
2022-10-02T20:31:51.597Z,41.22
2022-10-02T20:33:54.909Z,41.57
2022-10-02T20:36:00.751Z,41.01
2022-10-02T20:38:11.134Z,41.25
2022-10-02T20:40:17.734Z,41.25
2022-10-02T20:42:24.519Z,41.43
2022-10-02T20:44:27.575Z,42.33
2022-10-02T20:46:47.456Z,42.46
2022-10-02T20:49:13.478Z,42.69
2022-10-02T20:51:15.620Z,42.85
2022-10-02T20:53:23.264Z,43.09
2022-10-02T20:55:43.139Z,42.96
2022-10-02T20:58:00.635Z,42.98
2022-10-02T21:00:14.673Z,42.97
2022-10-02T21:02:53.777Z,42.90
2022-10-02T21:05:15.639Z,43.15
2022-10-02T21:07:45.375Z,43.03
2022-10-02T21:09:46.960Z,43.27
2022-10-02T21:12:15.902Z,43.27
2022-10-02T21:14:50.892Z,42.82
2022-10-02T21:17:13.529Z,43.17
2022-10-02T21:19:38.635Z,43.15
2022-10-02T21:22:17.227Z,42.99
2022-10-02T21:25:03.561Z,43.13
2022-10-02T21:27:37.183Z,43.34
2022-10-02T21:29:47.581Z,43.64
2022-10-02T21:32:18.053Z,43.44
2022-10-02T21:34:36.624Z,43.74
2022-10-02T21:36:59.560Z,44.00
2022-10-02T21:39:26.822Z,43.62
2022-10-02T21:41:38.156Z,43.03
2022-10-02T21:43:50.761Z,43.73
2022-10-02T21:46:24.787Z,43.13
2022-10-02T21:48:44.799Z,42.92
2022-10-02T21:51:10.575Z,43.14
2022-10-02T21:53:41.572Z,43.27
2022-10-02T21:56:01.394Z,43.24
2022-10-02T21:58:27.656Z,42.54
2022-10-02T22:00:29.669Z,42.89
2022-10-02T22:02:49.511Z,42.58
2022-10-02T22:05:09.631Z,42.80
2022-10-02T22:07:36.055Z,42.70
2022-10-02T22:09:48.671Z,42.56
2022-10-02T22:12:37.643Z,42.83
2022-10-02T22:14:48.074Z,42.78
2022-10-02T22:17:10.891Z,42.53
2022-10-02T22:19:22.013Z,42.46
2022-10-02T22:21:44.962Z,42.44
2022-10-02T22:24:11.752Z,42.51
2022-10-02T22:26:25.193Z,42.23
2022-10-02T22:28:47.377Z,42.34
2022-10-02T22:31:10.999Z,42.61
2022-10-02T22:33:22.280Z,42.45
2022-10-02T22:36:03.182Z,42.23
2022-10-02T22:38:08.776Z,42.40
2022-10-02T22:40:22.216Z,42.48
2022-10-02T22:42:26.127Z,42.25
2022-10-02T22:44:42.854Z,42.47
2022-10-02T22:46:51.309Z,42.42
2022-10-02T22:49:21.157Z,42.44
2022-10-02T22:51:31.322Z,42.45
2022-10-02T22:53:41.081Z,42.49
2022-10-02T22:55:54.165Z,42.44
2022-10-02T22:58:21.221Z,42.49
2022-10-02T23:00:27.620Z,42.16
2022-10-02T23:02:37.485Z,42.26
2022-10-02T23:04:55.646Z,42.24
2022-10-02T23:07:20.445Z,42.18
2022-10-02T23:09:22.934Z,42.42
2022-10-02T23:11:47.508Z,42.24
2022-10-02T23:13:56.488Z,42.30
2022-10-02T23:16:28.906Z,42.32
2022-10-02T23:18:42.097Z,42.05
2022-10-02T23:20:49.487Z,42.39
2022-10-02T23:23:06.022Z,42.17
2022-10-02T23:25:26.612Z,42.33
2022-10-02T23:27:40.039Z,42.50
2022-10-02T23:29:50.402Z,42.25
2022-10-02T23:32:04.457Z,42.48
2022-10-02T23:34:27.917Z,42.43
2022-10-02T23:36:57.009Z,42.42
2022-10-02T23:39:05.160Z,42.46
2022-10-02T23:41:13.594Z,42.37
2022-10-02T23:43:32.591Z,42.51
2022-10-02T23:45:37.381Z,42.46
2022-10-02T23:47:59.252Z,42.58
2022-10-02T23:50:00.934Z,42.11
2022-10-02T23:52:08.545Z,42.42
2022-10-02T23:54:19.027Z,42.48
2022-10-02T23:56:23.446Z,42.37
2022-10-02T23:58:40.225Z,42.60
